Time;durP1;ratioP1;P1;durP2;ratioP2;P2;SDS_P1;SDS_P2;PMS_P1;PMS_P2;Temp;Humidity;BMP_temperature;BMP_pressure;BME280_temperature;BME280_humidity;BME280_pressure;Samples;Min_cycle;Max_cycle;Signal;HPM_P1;HPM_P2
2022/10/03 00:02:14;;;;;;;;;6.00;6.00;;;;;;;;5028042;28;10739;-82
2022/10/03 00:05:00;;;;;;;;;6.00;6.00;;;;;;;;5012862;28;10077;-81
2022/10/03 00:07:56;;;;;;;;;8.25;6.00;;;;;;;;5006631;28;9888;-82
2022/10/03 00:10:31;;;;;;;;;8.00;8.00;;;;;;;;5029011;28;10047;-81
2022/10/03 00:13:11;;;;;;;;;9.00;7.75;;;;;;;;5030749;28;10044;-82
2022/10/03 00:15:47;;;;;;;;;5.00;5.00;;;;;;;;5029442;28;10101;-81
2022/10/03 00:18:23;;;;;;;;;6.00;6.00;;;;;;;;5034225;28;10144;-82
2022/10/03 00:21:09;;;;;;;;;6.00;6.00;;;;;;;;5028382;28;10130;-81
2022/10/03 00:23:44;;;;;;;;;9.00;7.00;;;;;;;;5028028;28;10144;-81
2022/10/03 00:26:29;;;;;;;;;5.75;5.75;;;;;;;;5033722;28;10123;-80
2022/10/03 00:29:23;;;;;;;;;4.00;4.00;;;;;;;;5026430;28;10212;-81
2022/10/03 00:32:00;;;;;;;;;5.75;5.75;;;;;;;;5023106;28;10040;-82
2022/10/03 00:34:38;;;;;;;;;5.75;5.50;;;;;;;;5022829;28;10177;-81
2022/10/03 00:37:20;;;;;;;;;7.00;5.00;;;;;;;;5022818;28;10338;-81
2022/10/03 00:39:57;;;;;;;;;5.75;5.75;;;;;;;;5016975;28;10258;-81
2022/10/03 00:42:53;;;;;;;;;6.00;6.00;;;;;;;;5025258;28;11328;-81
2022/10/03 00:45:48;;;;;;;;;6.00;6.00;;;;;;;;5019661;28;11100;-80
2022/10/03 00:48:46;;;;;;;;;7.00;7.00;;;;;;;;5023482;28;10359;-80
2022/10/03 00:51:33;;;;;;;;;8.50;6.00;;;;;;;;5025828;28;10262;-82
2022/10/03 00:54:13;;;;;;;;;6.50;6.50;;;;;;;;5007559;28;10337;-82
2022/10/03 00:57:03;;;;;;;;;4.50;4.50;;;;;;;;5029949;28;10415;-82
2022/10/03 01:00:01;;;;;;;;;10.00;8.25;;;;;;;;5020986;28;10370;-82
2022/10/03 01:02:41;;;;;;;;;7.50;5.00;;;;;;;;5009180;28;10343;-82
2022/10/03 01:05:20;;;;;;;;;4.75;4.75;;;;;;;;5033041;28;10421;-82
2022/10/03 01:08:10;;;;;;;;;4.00;4.00;;;;;;;;5003232;28;10271;-82
2022/10/03 01:10:46;;;;;;;;;4.00;4.00;;;;;;;;5022320;28;10381;-81
2022/10/03 01:13:27;;;;;;;;;5.00;5.00;;;;;;;;5010515;28;10273;-82
2022/10/03 01:16:05;;;;;;;;;5.00;5.00;;;;;;;;5026945;28;10359;-82
2022/10/03 01:18:42;;;;;;;;;4.75;4.75;;;;;;;;5027153;28;11061;-82
2022/10/03 01:21:18;;;;;;;;;6.50;4.25;;;;;;;;5031147;28;10381;-82
2022/10/03 01:24:17;;;;;;;;;6.00;4.25;;;;;;;;5035899;28;10204;-82
2022/10/03 01:26:54;;;;;;;;;3.25;3.25;;;;;;;;5021198;28;10330;-82
2022/10/03 01:32:23;;;;;;;;;5.50;4.00;;;;;;;;5031815;28;10257;-81
2022/10/03 01:35:01;;;;;;;;;6.00;6.00;;;;;;;;5019803;28;10275;-81
2022/10/03 01:37:37;;;;;;;;;4.50;4.50;;;;;;;;5025673;28;10182;-81
2022/10/03 01:40:13;;;;;;;;;4.25;4.25;;;;;;;;5029419;28;10078;-81
2022/10/03 01:42:45;;;;;;;;;6.00;6.00;;;;;;;;5028788;28;10222;-81
2022/10/03 01:45:22;;;;;;;;;6.25;5.00;;;;;;;;5029634;28;10152;-82
2022/10/03 01:47:53;;;;;;;;;4.25;4.25;;;;;;;;5031563;28;10100;-80
2022/10/03 01:50:28;;;;;;;;;4.75;4.75;;;;;;;;5026310;28;9901;-81
2022/10/03 01:52:58;;;;;;;;;5.00;3.25;;;;;;;;5036616;28;9986;-81
2022/10/03 01:55:34;;;;;;;;;5.25;4.25;;;;;;;;5024395;28;10182;-82
2022/10/03 01:58:06;;;;;;;;;3.25;3.25;;;;;;;;5023067;28;10112;-82
2022/10/03 02:00:43;;;;;;;;;4.00;4.00;;;;;;;;5028541;28;9771;-81
2022/10/03 02:03:15;;;;;;;;;3.75;3.75;;;;;;;;5028163;28;10050;-80
2022/10/03 02:05:52;;;;;;;;;3.50;3.00;;;;;;;;5024458;28;9885;-81
2022/10/03 02:08:29;;;;;;;;;4.00;4.00;;;;;;;;5030186;28;10072;-81
2022/10/03 02:11:00;;;;;;;;;5.50;5.50;;;;;;;;5025755;28;9798;-83
2022/10/03 02:13:44;;;;;;;;;3.25;3.25;;;;;;;;5032040;28;9928;-81
2022/10/03 02:16:20;;;;;;;;;4.00;4.00;;;;;;;;5019185;28;9779;-81
2022/10/03 02:18:53;;;;;;;;;4.50;4.50;;;;;;;;5031592;28;9885;-82
2022/10/03 02:21:22;;;;;;;;;5.00;5.00;;;;;;;;4999427;28;9870;-81
2022/10/03 02:23:51;;;;;;;;;6.50;6.50;;;;;;;;5024456;28;10098;-83
2022/10/03 02:27:13;;;;;;;;;6.00;6.00;;;;;;;;5035219;28;10130;-82
2022/10/03 02:30:12;;;;;;;;;6.75;4.50;;;;;;;;4953316;28;10192;-81
2022/10/03 02:33:20;;;;;;;;;5.00;5.00;;;;;;;;5010264;28;10082;-82
2022/10/03 02:36:08;;;;;;;;;5.00;5.00;;;;;;;;4955935;28;9827;-81
2022/10/03 02:38:59;;;;;;;;;5.00;5.00;;;;;;;;5028535;28;10269;-82
2022/10/03 02:41:54;;;;;;;;;4.00;4.00;;;;;;;;5025009;28;9880;-82
2022/10/03 02:44:38;;;;;;;;;4.25;4.25;;;;;;;;4982779;28;9983;-82
2022/10/03 02:47:46;;;;;;;;;3.75;3.75;;;;;;;;5005746;28;9976;-82
2022/10/03 02:50:42;;;;;;;;;4.00;4.00;;;;;;;;4977965;28;9921;-81
2022/10/03 02:53:52;;;;;;;;;2.00;2.00;;;;;;;;5025387;28;9971;-81
2022/10/03 02:56:55;;;;;;;;;3.00;3.00;;;;;;;;4963563;28;10002;-82
2022/10/03 02:59:57;;;;;;;;;3.00;3.00;;;;;;;;5029759;28;9933;-82
2022/10/03 03:02:49;;;;;;;;;3.00;3.00;;;;;;;;4996737;28;10001;-82
2022/10/03 03:05:53;;;;;;;;;1.50;1.50;;;;;;;;5026926;28;9961;-82
2022/10/03 03:08:37;;;;;;;;;2.00;2.00;;;;;;;;4985848;28;9905;-82
2022/10/03 03:11:25;;;;;;;;;1.00;1.00;;;;;;;;5028090;28;10273;-81
2022/10/03 03:14:28;;;;;;;;;1.00;1.00;;;;;;;;5025344;28;10134;-82
2022/10/03 03:17:16;;;;;;;;;5.00;3.00;;;;;;;;4982837;28;10282;-82
2022/10/03 03:20:13;;;;;;;;;2.25;2.25;;;;;;;;5024628;28;10336;-81
2022/10/03 03:22:55;;;;;;;;;1.50;1.50;;;;;;;;4985406;28;10336;-83
2022/10/03 03:25:35;;;;;;;;;3.00;3.00;;;;;;;;5030606;28;11111;-82
2022/10/03 03:28:18;;;;;;;;;1.75;1.75;;;;;;;;5026698;28;10383;-80
2022/10/03 03:30:55;;;;;;;;;4.00;4.00;;;;;;;;5022565;28;10265;-81
2022/10/03 03:33:28;;;;;;;;;2.50;2.50;;;;;;;;5012775;28;10477;-82
2022/10/03 03:36:03;;;;;;;;;2.50;2.50;;;;;;;;5031801;28;10347;-81
2022/10/03 03:38:39;;;;;;;;;3.25;3.25;;;;;;;;5030647;28;10370;-82
2022/10/03 03:41:19;;;;;;;;;3.50;3.50;;;;;;;;5035477;28;10387;-81
2022/10/03 03:44:14;;;;;;;;;4.25;2.50;;;;;;;;5028297;28;10416;-82
2022/10/03 03:46:48;;;;;;;;;4.75;4.75;;;;;;;;5024866;28;10398;-82
2022/10/03 03:49:31;;;;;;;;;3.50;3.50;;;;;;;;5022198;28;10414;-82
2022/10/03 03:52:19;;;;;;;;;5.00;5.00;;;;;;;;5027460;28;10400;-81
2022/10/03 03:55:01;;;;;;;;;10.50;8.25;;;;;;;;5031034;28;10513;-82
2022/10/03 03:57:44;;;;;;;;;6.00;6.00;;;;;;;;5019693;28;10842;-82
2022/10/03 04:00:15;;;;;;;;;4.50;4.50;;;;;;;;5026219;28;10487;-82
2022/10/03 04:03:06;;;;;;;;;8.25;8.25;;;;;;;;5026174;28;10601;-81
2022/10/03 04:05:46;;;;;;;;;7.00;7.00;;;;;;;;5025450;28;10526;-80
2022/10/03 04:08:26;;;;;;;;;6.00;6.00;;;;;;;;5020455;28;10493;-81
2022/10/03 04:11:06;;;;;;;;;3.00;3.00;;;;;;;;5027173;28;10472;-80
2022/10/03 04:13:46;;;;;;;;;2.25;2.25;;;;;;;;5013444;28;10529;-81
2022/10/03 04:19:24;;;;;;;;;7.25;5.25;;;;;;;;5009552;28;10381;-80
2022/10/03 04:22:04;;;;;;;;;5.25;3.50;;;;;;;;5004516;28;10556;-82
2022/10/03 04:24:46;;;;;;;;;4.00;4.00;;;;;;;;5021523;28;10395;-81
2022/10/03 04:27:37;;;;;;;;;3.00;3.00;;;;;;;;5009912;28;10517;-80
2022/10/03 04:30:10;;;;;;;;;5.00;5.00;;;;;;;;5022460;28;10422;-81
2022/10/03 04:32:51;;;;;;;;;3.50;3.50;;;;;;;;5024932;28;10517;-80
2022/10/03 04:36:12;;;;;;;;;4.50;4.50;;;;;;;;5030848;28;10467;-80
2022/10/03 04:38:44;;;;;;;;;4.00;4.00;;;;;;;;4953886;28;10347;-81
2022/10/03 04:41:18;;;;;;;;;4.00;4.00;;;;;;;;5024964;28;10162;-81
2022/10/03 04:43:59;;;;;;;;;3.00;3.00;;;;;;;;5026892;28;10264;-81
2022/10/03 04:46:30;;;;;;;;;5.00;3.75;;;;;;;;5035062;28;10212;-81
2022/10/03 04:49:03;;;;;;;;;4.25;2.75;;;;;;;;5020638;28;10122;-82
2022/10/03 04:51:46;;;;;;;;;4.00;4.00;;;;;;;;5027935;28;10241;-83
2022/10/03 04:54:23;;;;;;;;;3.00;3.00;;;;;;;;5032112;28;10322;-80
2022/10/03 04:56:56;;;;;;;;;2.75;2.75;;;;;;;;5030699;28;10210;-81
2022/10/03 04:59:42;;;;;;;;;3.00;3.00;;;;;;;;5012798;28;10081;-81
2022/10/03 05:02:24;;;;;;;;;3.75;2.25;;;;;;;;5027076;28;10089;-80
2022/10/03 05:05:09;;;;;;;;;1.00;1.00;;;;;;;;5032174;28;10672;-81
2022/10/03 05:07:42;;;;;;;;;2.00;2.00;;;;;;;;5022360;28;9986;-83
2022/10/03 05:10:34;;;;;;;;;2.75;2.75;;;;;;;;5038467;28;10040;-82
2022/10/03 05:13:10;;;;;;;;;2.00;2.00;;;;;;;;5035080;28;10716;-81
2022/10/03 05:15:45;;;;;;;;;2.00;2.00;;;;;;;;5030110;28;10863;-81
2022/10/03 05:18:17;;;;;;;;;3.50;2.00;;;;;;;;5010928;28;10011;-83
2022/10/03 05:20:48;;;;;;;;;3.00;3.00;;;;;;;;5031453;28;10031;-83
2022/10/03 05:23:25;;;;;;;;;3.25;2.00;;;;;;;;5032632;28;10089;-79
2022/10/03 05:26:00;;;;;;;;;2.50;2.50;;;;;;;;5022203;28;9953;-81
2022/10/03 05:28:37;;;;;;;;;4.00;3.00;;;;;;;;5036004;28;10054;-82
2022/10/03 05:31:16;;;;;;;;;5.50;3.00;;;;;;;;5037160;28;10132;-83
2022/10/03 05:33:47;;;;;;;;;3.50;3.50;;;;;;;;5034499;28;10192;-84
2022/10/03 05:36:21;;;;;;;;;3.00;3.00;;;;;;;;5031390;28;10400;-84
2022/10/03 05:39:27;;;;;;;;;3.25;2.00;;;;;;;;5033715;28;10226;-87
2022/10/03 05:41:58;;;;;;;;;3.75;2.00;;;;;;;;5020242;28;10130;-77
2022/10/03 05:44:39;;;;;;;;;3.50;3.50;;;;;;;;5035924;28;10128;-77
2022/10/03 05:47:43;;;;;;;;;3.00;3.00;;;;;;;;5036056;28;10220;-79
2022/10/03 05:50:27;;;;;;;;;4.50;4.00;;;;;;;;5039756;28;10301;-76
2022/10/03 05:53:04;;;;;;;;;5.00;4.00;;;;;;;;5036582;28;10194;-80
2022/10/03 05:55:42;;;;;;;;;4.00;2.75;;;;;;;;5036383;28;10189;-79
2022/10/03 05:58:36;;;;;;;;;3.00;3.00;;;;;;;;5038517;28;11677;-79
2022/10/03 06:01:33;;;;;;;;;4.00;4.00;;;;;;;;5013185;28;10490;-77
2022/10/03 06:04:25;;;;;;;;;9.50;8.00;;;;;;;;5037491;28;10330;-78
2022/10/03 06:07:05;;;;;;;;;6.25;5.25;;;;;;;;5021314;28;10652;-77
2022/10/03 06:10:01;;;;;;;;;6.50;4.75;;;;;;;;5030757;28;11261;-78
2022/10/03 06:12:32;;;;;;;;;5.75;5.75;;;;;;;;5036759;28;10416;-80
2022/10/03 06:15:21;;;;;;;;;8.75;6.25;;;;;;;;5037117;28;10563;-81
2022/10/03 06:18:02;;;;;;;;;9.75;9.50;;;;;;;;5029953;28;10625;-80
2022/10/03 06:21:15;;;;;;;;;10.00;10.00;;;;;;;;5035170;28;10708;-84
2022/10/03 06:24:10;;;;;;;;;7.75;7.75;;;;;;;;5038668;28;10750;-79
2022/10/03 06:27:03;;;;;;;;;7.25;7.25;;;;;;;;5034352;28;11223;-81
2022/10/03 06:29:58;;;;;;;;;7.00;7.00;;;;;;;;5032247;28;10421;-81
2022/10/03 06:32:58;;;;;;;;;5.50;5.50;;;;;;;;5027469;28;10585;-81
2022/10/03 06:36:01;;;;;;;;;4.75;4.75;;;;;;;;5032006;28;10495;-81
2022/10/03 06:39:00;;;;;;;;;5.50;5.50;;;;;;;;5033459;28;10372;-80
2022/10/03 06:42:07;;;;;;;;;5.50;4.50;;;;;;;;5034532;28;10488;-81
2022/10/03 06:44:52;;;;;;;;;5.50;5.25;;;;;;;;4996756;28;10431;-78
2022/10/03 06:47:40;;;;;;;;;3.75;3.25;;;;;;;;5034194;28;10426;-83
2022/10/03 06:50:24;;;;;;;;;3.00;3.00;;;;;;;;5022740;28;10513;-78
2022/10/03 06:53:26;;;;;;;;;4.75;3.00;;;;;;;;5020165;28;10347;-75
2022/10/03 06:56:20;;;;;;;;;5.00;3.75;;;;;;;;4991480;28;10276;-75
2022/10/03 06:59:05;;;;;;;;;3.00;3.00;;;;;;;;5026409;28;11052;-75
2022/10/03 07:01:59;;;;;;;;;2.50;2.50;;;;;;;;5022374;28;9928;-80
2022/10/03 07:04:55;;;;;;;;;6.25;4.00;;;;;;;;5024075;28;10106;-81
2022/10/03 07:07:54;;;;;;;;;3.00;3.00;;;;;;;;5005610;28;10167;-81
2022/10/03 07:10:31;;;;;;;;;2.00;2.00;;;;;;;;5022642;28;10074;-79
2022/10/03 07:13:46;;;;;;;;;8.00;4.00;;;;;;;;5025025;28;10041;-75
2022/10/03 07:19:53;;;;;;;;;3.00;3.00;;;;;;;;5011568;28;9989;-75
2022/10/03 07:22:43;;;;;;;;;4.00;3.00;;;;;;;;5025367;28;10166;-75
2022/10/03 07:25:53;;;;;;;;;3.75;2.75;;;;;;;;4999867;28;10115;-74
2022/10/03 07:28:35;;;;;;;;;3.25;3.00;;;;;;;;5019848;28;10057;-76
2022/10/03 07:31:09;;;;;;;;;4.00;2.25;;;;;;;;5026539;28;10010;-79
2022/10/03 07:34:24;;;;;;;;;3.50;2.25;;;;;;;;5008645;28;10041;-75
2022/10/03 07:40:44;;;;;;;;;3.00;3.00;;;;;;;;5023896;28;9686;-76
2022/10/03 07:43:34;;;;;;;;;2.50;2.50;;;;;;;;5013408;28;9743;-76
2022/10/03 07:46:31;;;;;;;;;3.75;3.75;;;;;;;;5030607;28;9831;-74
2022/10/03 07:49:30;;;;;;;;;2.75;2.50;;;;;;;;5023391;28;9716;-76
2022/10/03 07:52:29;;;;;;;;;4.25;4.25;;;;;;;;5005098;28;9569;-78
2022/10/03 07:55:17;;;;;;;;;4.00;4.00;;;;;;;;5022993;28;10424;-80
2022/10/03 07:58:12;;;;;;;;;4.00;3.75;;;;;;;;5024025;28;10502;-76
2022/10/03 08:00:54;;;;;;;;;2.50;2.50;;;;;;;;5026896;28;9712;-75
2022/10/03 08:03:55;;;;;;;;;4.25;4.25;;;;;;;;5023962;28;9753;-75
2022/10/03 08:06:28;;;;;;;;;4.50;3.25;;;;;;;;5024964;28;9602;-76
2022/10/03 08:09:27;;;;;;;;;4.00;4.00;;;;;;;;5023491;28;9477;-73
2022/10/03 08:12:14;;;;;;;;;5.00;5.00;;;;;;;;5025745;28;9418;-79
2022/10/03 08:14:50;;;;;;;;;5.25;5.00;;;;;;;;5038775;28;9735;-74
2022/10/03 08:17:51;;;;;;;;;6.00;6.00;;;;;;;;5026735;28;9795;-73
2022/10/03 08:20:34;;;;;;;;;8.50;5.50;;;;;;;;5015910;28;9565;-73
2022/10/03 08:23:15;;;;;;;;;4.00;4.00;;;;;;;;5006288;28;9536;-72
2022/10/03 08:25:57;;;;;;;;;5.75;4.00;;;;;;;;5028987;28;9431;-76
2022/10/03 08:28:37;;;;;;;;;9.00;5.00;;;;;;;;5026314;28;9538;-76
2022/10/03 08:31:42;;;;;;;;;5.00;5.00;;;;;;;;5024831;28;9289;-74
2022/10/03 08:34:43;;;;;;;;;4.00;4.00;;;;;;;;5016437;28;9425;-74
2022/10/03 08:37:25;;;;;;;;;6.00;6.00;;;;;;;;4953541;28;9267;-74
2022/10/03 08:40:15;;;;;;;;;9.67;5.67;;;;;;;;5021474;28;10062;-75
2022/10/03 08:43:07;;;;;;;;;5.67;5.67;;;;;;;;5026301;28;9988;-75
2022/10/03 08:45:52;;;;;;;;;5.00;5.00;;;;;;;;5025303;28;9281;-76
2022/10/03 08:49:01;;;;;;;;;5.00;5.00;;;;;;;;5025581;28;9049;-75
2022/10/03 08:51:57;;;;;;;;;5.00;5.00;;;;;;;;5020221;28;9818;-75
2022/10/03 08:55:00;;;;;;;;;6.67;6.00;;;;;;;;5026690;28;9021;-73
2022/10/03 08:58:10;;;;;;;;;12.00;12.00;;;;;;;;5026315;28;9024;-77
2022/10/03 09:00:51;;;;;;;;;8.00;5.67;;;;;;;;5019548;28;9104;-81
2022/10/03 09:03:59;;;;;;;;;10.67;8.67;;;;;;;;5003227;28;9277;-74
2022/10/03 09:06:50;;;;;;;;;8.67;8.67;;;;;;;;5005998;28;9281;-75
2022/10/03 09:09:45;;;;;;;;;7.33;7.33;;;;;;;;5003677;28;9140;-79
2022/10/03 09:12:51;;;;;;;;;13.33;11.67;;;;;;;;5004352;28;9045;-77
2022/10/03 09:16:01;;;;;;;;;15.67;15.67;;;;;;;;4986252;28;9214;-78
2022/10/03 09:18:53;;;;;;;;;11.67;11.67;;;;;;;;4960824;28;9222;-80
2022/10/03 09:21:48;;;;;;;;;18.00;14.67;;;;;;;;4997971;28;8982;-78
2022/10/03 09:24:37;;;;;;;;;13.33;11.67;;;;;;;;5001922;28;9193;-78
2022/10/03 09:27:30;;;;;;;;;13.00;13.00;;;;;;;;5001972;28;9145;-77
2022/10/03 09:30:12;;;;;;;;;16.33;15.33;;;;;;;;5004949;28;9237;-79
2022/10/03 09:33:21;;;;;;;;;14.33;11.67;;;;;;;;4986283;28;9941;-82
2022/10/03 09:36:15;;;;;;;;;18.33;17.00;;;;;;;;4999702;28;9060;-78
2022/10/03 09:39:28;;;;;;;;;16.33;16.33;;;;;;;;5003067;28;9157;-79
2022/10/03 09:42:14;;;;;;;;;15.00;13.00;;;;;;;;4937748;28;9454;-80
2022/10/03 09:45:24;;;;;;;;;18.00;17.33;;;;;;;;5000343;28;9049;-81
2022/10/03 09:48:29;;;;;;;;;16.33;16.33;;;;;;;;5003431;28;9043;-77
2022/10/03 09:51:21;;;;;;;;;17.33;14.33;;;;;;;;5002794;28;9053;-80
2022/10/03 09:54:27;;;;;;;;;17.00;17.00;;;;;;;;4999410;28;9823;-79
2022/10/03 09:57:37;;;;;;;;;15.00;14.33;;;;;;;;5002313;28;9219;-77
2022/10/03 10:00:26;;;;;;;;;12.75;11.50;;;;;;;;4923861;28;9240;-76
2022/10/03 10:03:28;;;;;;;;;14.00;13.67;;;;;;;;4996016;28;8965;-74
2022/10/03 10:06:26;;;;;;;;;14.67;14.33;;;;;;;;4968678;28;9045;-78
2022/10/03 10:09:30;;;;;;;;;14.67;12.33;;;;;;;;5004315;28;9100;-76
2022/10/03 10:12:27;;;;;;;;;16.00;16.00;;;;;;;;5003396;28;9039;-76
2022/10/03 10:15:14;;;;;;;;;15.00;15.00;;;;;;;;5001166;28;9203;-75
2022/10/03 10:18:22;;;;;;;;;14.75;14.75;;;;;;;;5000546;28;9059;-76
2022/10/03 10:21:22;;;;;;;;;14.67;12.67;;;;;;;;5003876;28;8873;-76
2022/10/03 10:24:01;;;;;;;;;13.50;13.50;;;;;;;;4999452;28;9044;-76
2022/10/03 10:26:56;;;;;;;;;24.00;20.00;;;;;;;;5002449;28;8913;-76
2022/10/03 10:29:46;;;;;;;;;13.50;13.50;;;;;;;;5003836;28;8870;-77
2022/10/03 10:32:44;;;;;;;;;12.75;12.75;;;;;;;;5000578;28;8843;-75
2022/10/03 10:35:46;;;;;;;;;20.75;15.00;;;;;;;;5001076;28;8896;-76
2022/10/03 10:38:37;;;;;;;;;14.00;14.00;;;;;;;;4975227;28;8875;-76
2022/10/03 10:41:37;;;;;;;;;18.75;14.75;;;;;;;;5000647;28;8888;-79
2022/10/03 10:44:52;;;;;;;;;15.75;15.00;;;;;;;;4999891;28;8845;-76
2022/10/03 10:48:04;;;;;;;;;16.00;16.00;;;;;;;;4950239;28;9737;-76
2022/10/03 10:50:55;;;;;;;;;19.75;18.75;;;;;;;;4963426;28;8970;-76
2022/10/03 10:54:05;;;;;;;;;19.50;14.00;;;;;;;;5001303;28;8878;-76
2022/10/03 10:57:08;;;;;;;;;19.25;19.25;;;;;;;;4919301;28;8887;-76
2022/10/03 11:00:04;;;;;;;;;22.00;18.25;;;;;;;;5002321;28;8938;-76
2022/10/03 11:03:13;;;;;;;;;21.00;19.50;;;;;;;;5002013;28;8864;-76
2022/10/03 11:06:17;;;;;;;;;15.25;13.50;;;;;;;;4937088;28;8886;-76
2022/10/03 11:09:35;;;;;;;;;21.25;17.75;;;;;;;;4982980;28;8950;-76
2022/10/03 11:12:48;;;;;;;;;16.75;14.00;;;;;;;;4979889;28;8923;-75
2022/10/03 11:15:54;;;;;;;;;16.00;16.00;;;;;;;;4970956;28;8899;-75
2022/10/03 11:18:55;;;;;;;;;15.75;15.75;;;;;;;;5001525;28;9733;-76
2022/10/03 11:21:55;;;;;;;;;19.25;17.25;;;;;;;;4983331;28;8907;-76
2022/10/03 11:25:06;;;;;;;;;21.25;14.50;;;;;;;;4998324;28;8884;-76
2022/10/03 11:28:08;;;;;;;;;23.25;18.75;;;;;;;;4978559;28;9476;-76
2022/10/03 11:31:17;;;;;;;;;19.75;19.75;;;;;;;;5001855;28;8804;-75
2022/10/03 11:34:16;;;;;;;;;17.75;16.50;;;;;;;;4948053;28;9020;-76
2022/10/03 11:40:40;;;;;;;;;14.00;13.50;;;;;;;;5002548;28;9623;-75
2022/10/03 11:43:51;;;;;;;;;20.25;18.50;;;;;;;;5001339;28;8863;-75
2022/10/03 11:46:34;;;;;;;;;15.75;15.25;;;;;;;;5000837;28;8952;-75
2022/10/03 11:49:06;;;;;;;;;17.50;14.50;;;;;;;;5002474;28;8971;-75
2022/10/03 11:51:45;;;;;;;;;20.25;17.25;;;;;;;;5000804;28;8876;-76
2022/10/03 11:54:24;;;;;;;;;13.00;12.25;;;;;;;;5000213;28;8892;-75
2022/10/03 11:56:58;;;;;;;;;22.00;16.75;;;;;;;;5003643;28;9392;-75
2022/10/03 11:59:48;;;;;;;;;17.25;17.25;;;;;;;;5000822;28;8969;-75
2022/10/03 12:02:37;;;;;;;;;15.00;15.00;;;;;;;;5000500;28;8823;-75
2022/10/03 12:05:12;;;;;;;;;17.00;16.00;;;;;;;;4999922;28;9632;-76
2022/10/03 12:10:39;;;;;;;;;12.50;11.50;;;;;;;;5002450;28;9017;-76
2022/10/03 12:13:16;;;;;;;;;17.50;14.75;;;;;;;;5000636;28;9645;-75
2022/10/03 12:15:46;;;;;;;;;15.25;13.50;;;;;;;;4983097;28;8898;-75
2022/10/03 12:18:17;;;;;;;;;16.00;15.25;;;;;;;;5003799;28;9011;-77
2022/10/03 12:21:09;;;;;;;;;13.75;12.00;;;;;;;;5000842;28;8894;-76
2022/10/03 12:23:57;;;;;;;;;11.75;11.75;;;;;;;;4973237;28;8898;-76
2022/10/03 12:26:32;;;;;;;;;14.25;12.75;;;;;;;;4960661;28;8877;-76
2022/10/03 12:29:02;;;;;;;;;11.50;11.50;;;;;;;;5002801;28;9005;-75
2022/10/03 12:31:34;;;;;;;;;15.75;13.25;;;;;;;;5001468;28;8831;-76
2022/10/03 12:34:20;;;;;;;;;12.50;12.50;;;;;;;;5000038;28;8927;-75
2022/10/03 12:36:53;;;;;;;;;12.25;10.50;;;;;;;;5002195;28;8876;-76
2022/10/03 12:39:32;;;;;;;;;11.75;10.50;;;;;;;;5001756;28;8937;-75
2022/10/03 12:42:23;;;;;;;;;12.75;11.75;;;;;;;;5002077;28;8894;-76
2022/10/03 12:44:56;;;;;;;;;11.75;10.25;;;;;;;;4972719;28;8907;-75
2022/10/03 12:47:44;;;;;;;;;11.75;11.00;;;;;;;;4991175;28;8903;-75
2022/10/03 12:50:23;;;;;;;;;11.00;11.00;;;;;;;;4993905;28;9038;-75
2022/10/03 12:52:56;;;;;;;;;10.00;8.25;;;;;;;;4994109;28;8879;-75
2022/10/03 12:55:27;;;;;;;;;12.50;12.00;;;;;;;;4991055;28;8922;-75
2022/10/03 12:58:03;;;;;;;;;9.50;9.50;;;;;;;;4995286;28;8896;-76
2022/10/03 13:00:40;;;;;;;;;8.50;8.50;;;;;;;;4992258;28;8839;-75
2022/10/03 13:03:17;;;;;;;;;10.25;8.00;;;;;;;;4977167;28;8891;-75
2022/10/03 13:06:07;;;;;;;;;9.00;8.50;;;;;;;;4992525;28;8887;-75
2022/10/03 13:08:44;;;;;;;;;10.25;9.75;;;;;;;;4993114;28;8907;-75
2022/10/03 13:11:24;;;;;;;;;11.75;11.75;;;;;;;;4994388;28;8891;-75
2022/10/03 13:14:08;;;;;;;;;12.50;10.75;;;;;;;;4973650;28;8907;-76
2022/10/03 13:16:42;;;;;;;;;12.75;11.50;;;;;;;;4993533;28;8893;-75
2022/10/03 13:19:14;;;;;;;;;9.50;8.75;;;;;;;;4995279;28;8917;-75
2022/10/03 13:22:02;;;;;;;;;15.25;11.00;;;;;;;;4993570;28;9097;-74
2022/10/03 13:24:35;;;;;;;;;8.75;8.50;;;;;;;;4992668;28;8910;-75
2022/10/03 13:27:31;;;;;;;;;6.50;6.50;;;;;;;;4993390;28;8880;-75
2022/10/03 13:30:04;;;;;;;;;9.50;8.00;;;;;;;;4993189;28;8989;-77
2022/10/03 13:32:35;;;;;;;;;9.25;9.25;;;;;;;;4993029;28;8858;-76
2022/10/03 13:38:15;;;;;;;;;6.75;6.75;;;;;;;;4994501;28;8878;-76
2022/10/03 13:40:49;;;;;;;;;4.00;4.00;;;;;;;;4994588;28;9055;-77
2022/10/03 13:43:24;;;;;;;;;5.75;5.75;;;;;;;;5004352;28;8890;-77
2022/10/03 13:45:55;;;;;;;;;7.00;7.00;;;;;;;;5004582;28;8901;-77
2022/10/03 13:48:27;;;;;;;;;8.00;8.00;;;;;;;;5023641;28;8882;-75
2022/10/03 13:51:00;;;;;;;;;5.75;5.75;;;;;;;;5007368;28;9811;-76
2022/10/03 13:53:49;;;;;;;;;5.75;5.75;;;;;;;;5023176;28;8983;-76
2022/10/03 13:56:26;;;;;;;;;5.33;5.00;;;;;;;;5023339;28;8899;-77
2022/10/03 13:58:59;;;;;;;;;8.50;7.25;;;;;;;;4997964;28;8882;-77
2022/10/03 14:01:38;;;;;;;;;6.40;5.60;;;;;;;;5023082;28;8829;-78
2022/10/03 14:04:33;;;;;;;;;7.00;7.00;;;;;;;;5021519;28;8895;-78
2022/10/03 14:07:07;;;;;;;;;7.25;6.00;;;;;;;;5024748;28;8868;-78
2022/10/03 14:09:43;;;;;;;;;6.50;5.50;;;;;;;;5023282;28;8884;-77
2022/10/03 14:12:18;;;;;;;;;5.40;5.40;;;;;;;;5025338;28;8881;-76
2022/10/03 14:14:57;;;;;;;;;6.80;6.80;;;;;;;;5021651;28;8870;-77
2022/10/03 14:17:32;;;;;;;;;8.00;6.60;;;;;;;;5024676;28;8884;-77
2022/10/03 14:20:22;;;;;;;;;5.60;5.60;;;;;;;;5026174;28;8862;-75
2022/10/03 14:23:00;;;;;;;;;6.00;6.00;;;;;;;;5023459;28;8859;-77
2022/10/03 14:25:31;;;;;;;;;6.80;6.20;;;;;;;;5021937;28;8873;-79
2022/10/03 14:28:06;;;;;;;;;6.20;6.20;;;;;;;;5023638;28;9783;-75
2022/10/03 14:30:44;;;;;;;;;5.60;5.60;;;;;;;;5023456;28;8807;-82
2022/10/03 14:33:23;;;;;;;;;5.20;5.20;;;;;;;;5024867;28;8890;-80
2022/10/03 14:36:03;;;;;;;;;5.60;4.60;;;;;;;;5021214;28;8880;-80
2022/10/03 14:39:00;;;;;;;;;3.80;3.80;;;;;;;;5025259;28;8998;-80
2022/10/03 14:41:44;;;;;;;;;6.60;5.20;;;;;;;;5024237;28;8865;-78
2022/10/03 14:44:16;;;;;;;;;5.40;5.40;;;;;;;;5010400;28;8886;-79
2022/10/03 14:46:47;;;;;;;;;4.40;4.40;;;;;;;;5023382;28;9689;-79
2022/10/03 14:49:20;;;;;;;;;5.00;5.00;;;;;;;;5025443;28;8901;-79
2022/10/03 14:51:53;;;;;;;;;6.00;6.00;;;;;;;;5026296;28;8943;-78
2022/10/03 14:54:21;;;;;;;;;7.20;5.20;;;;;;;;5005233;28;8872;-80
2022/10/03 14:56:51;;;;;;;;;6.20;6.20;;;;;;;;5024453;28;8893;-77
2022/10/03 14:59:20;;;;;;;;;7.20;5.60;;;;;;;;5025264;28;8871;-79
2022/10/03 15:01:52;;;;;;;;;5.00;5.00;;;;;;;;5013060;28;8849;-82
2022/10/03 15:04:29;;;;;;;;;4.20;4.20;;;;;;;;5022592;28;8963;-74
2022/10/03 15:07:00;;;;;;;;;5.60;5.20;;;;;;;;5020750;28;8905;-75
2022/10/03 15:09:34;;;;;;;;;5.20;5.20;;;;;;;;5022497;28;9030;-77
2022/10/03 15:12:06;;;;;;;;;5.20;4.20;;;;;;;;5022713;28;8881;-84
2022/10/03 15:14:36;;;;;;;;;5.80;5.80;;;;;;;;5022013;28;8916;-78
2022/10/03 15:17:07;;;;;;;;;4.60;4.60;;;;;;;;5026899;28;8866;-75
2022/10/03 15:19:39;;;;;;;;;5.80;5.00;;;;;;;;5024970;28;8915;-79
2022/10/03 15:22:19;;;;;;;;;4.00;4.00;;;;;;;;5023952;28;8903;-78
2022/10/03 15:24:48;;;;;;;;;3.20;3.20;;;;;;;;5022932;28;8870;-77
2022/10/03 15:27:21;;;;;;;;;5.00;5.00;;;;;;;;5027843;28;8878;-79
2022/10/03 15:29:52;;;;;;;;;5.00;4.00;;;;;;;;5013150;28;8883;-80
2022/10/03 15:32:26;;;;;;;;;4.00;4.00;;;;;;;;5022201;28;8831;-77
2022/10/03 15:34:59;;;;;;;;;5.00;3.60;;;;;;;;5021909;28;8898;-78
2022/10/03 15:37:34;;;;;;;;;6.00;4.00;;;;;;;;5022362;28;8943;-75
2022/10/03 15:40:05;;;;;;;;;4.80;4.80;;;;;;;;5024792;28;8944;-85
2022/10/03 15:42:43;;;;;;;;;1.20;1.20;;;;;;;;5025147;28;8862;-82
2022/10/03 15:45:21;;;;;;;;;5.20;4.00;;;;;;;;5022649;28;8897;-85
2022/10/03 15:47:49;;;;;;;;;4.60;4.60;;;;;;;;5024152;28;8899;-84
2022/10/03 15:50:20;;;;;;;;;6.00;4.00;;;;;;;;5022736;28;9006;-82
2022/10/03 15:52:52;;;;;;;;;5.00;5.00;;;;;;;;5024939;28;9458;-83
2022/10/03 15:55:23;;;;;;;;;4.60;3.60;;;;;;;;5021892;28;8896;-79
2022/10/03 15:57:52;;;;;;;;;6.20;4.60;;;;;;;;5022402;28;8880;-80
2022/10/03 16:00:26;;;;;;;;;6.20;6.20;;;;;;;;5025678;28;8912;-76
2022/10/03 16:03:00;;;;;;;;;5.00;5.00;;;;;;;;5020770;28;8862;-82
2022/10/03 16:05:29;;;;;;;;;6.80;5.00;;;;;;;;5004556;28;8900;-83
2022/10/03 16:08:04;;;;;;;;;3.80;3.80;;;;;;;;5022271;28;8891;-76
2022/10/03 16:10:36;;;;;;;;;6.40;5.00;;;;;;;;5024023;28;8885;-74
2022/10/03 16:13:16;;;;;;;;;6.80;6.00;;;;;;;;5022286;28;8882;-80
2022/10/03 16:15:59;;;;;;;;;5.80;4.00;;;;;;;;5018816;28;8927;-74
2022/10/03 16:18:58;;;;;;;;;4.60;4.60;;;;;;;;5020813;28;8921;-76
2022/10/03 16:21:40;;;;;;;;;5.40;5.40;;;;;;;;4970297;28;8865;-75
2022/10/03 16:24:19;;;;;;;;;3.00;3.00;;;;;;;;5017164;28;9976;-78
2022/10/03 16:26:54;;;;;;;;;4.80;4.80;;;;;;;;5026617;28;8903;-81
2022/10/03 16:29:24;;;;;;;;;5.20;5.20;;;;;;;;5026974;28;8890;-78
2022/10/03 16:31:55;;;;;;;;;4.40;4.40;;;;;;;;5028634;28;8826;-79
2022/10/03 16:34:25;;;;;;;;;4.80;4.80;;;;;;;;5027803;28;8855;-77
2022/10/03 16:36:53;;;;;;;;;4.00;4.00;;;;;;;;5030425;28;9659;-74
2022/10/03 16:39:26;;;;;;;;;4.00;4.00;;;;;;;;5027330;28;8870;-80
2022/10/03 16:41:54;;;;;;;;;3.00;3.00;;;;;;;;5027180;28;8894;-84
2022/10/03 16:44:26;;;;;;;;;6.75;5.50;;;;;;;;5028402;28;8929;-84
2022/10/03 16:46:56;;;;;;;;;5.00;5.00;;;;;;;;5027301;28;8871;-92
2022/10/03 16:52:19;;;;;;;;;6.25;6.25;;;;;;;;4998792;28;8846;-79
2022/10/03 16:54:50;;;;;;;;;6.50;5.75;;;;;;;;5024162;28;9650;-79
2022/10/03 16:57:21;;;;;;;;;7.75;5.00;;;;;;;;5028896;28;8874;-85